Terminal Aerodrome Forecast
Issued by NWS

Home | Current Version | Previous Version | Text Only | Print | Product List | Glossary On
Versions: 1 2 3 4 5 6 7 8 9 10 11 12 13 14 15 16 17 18 19
059
FTUS43 KICT 240524
TAFCNU
TAF
KCNU 240524Z 2406/2506 13009KT P6SM SKC
      TEMPO 2406/2409 5SM BR FEW012
     FM241200 16014G20KT P6SM SCT200
     FM241800 19019G27KT P6SM SCT150
     FM250000 23015G22KT P6SM BKN130=

USA.gov is the U.S. government's official web portal to all federal, state and local government web resources and services.